Time;durP1;ratioP1;P1;durP2;ratioP2;P2;SDS_P1;SDS_P2;PMS_P1;PMS_P2;Temp;Humidity;BMP_temperature;BMP_pressure;BME280_temperature;BME280_humidity;BME280_pressure;Samples;Min_cycle;Max_cycle;Signal;HPM_P1;HPM_P2
2022/03/13 00:00:11;;;;;;;79.90;12.67;;;;;;;;;;5058551;28;20178;-67
2022/03/13 00:02:38;;;;;;;111.83;16.93;;;;;;;;;;5015564;28;21224;-67
2022/03/13 00:05:06;;;;;;;106.20;16.07;;;;;;;;;;5036726;28;20183;-67
2022/03/13 00:07:34;;;;;;;67.87;11.30;;;;;;;;;;5057743;28;20207;-67
2022/03/13 00:10:00;;;;;;;67.97;12.13;;;;;;;;;;5040466;28;20183;-67
2022/03/13 00:12:28;;;;;;;54.07;9.63;;;;;;;;;;5050896;28;20267;-67
2022/03/13 00:14:56;;;;;;;127.03;18.37;;;;;;;;;;5053462;28;20628;-67
2022/03/13 00:17:24;;;;;;;60.57;10.83;;;;;;;;;;5049946;28;20210;-67
2022/03/13 00:19:50;;;;;;;74.73;12.57;;;;;;;;;;5054022;28;20176;-67
2022/03/13 00:22:16;;;;;;;74.67;11.70;;;;;;;;;;5057869;28;20175;-67
2022/03/13 00:24:42;;;;;;;83.53;12.50;;;;;;;;;;5058738;28;20190;-67
2022/03/13 00:27:09;;;;;;;59.20;10.40;;;;;;;;;;5047048;28;21837;-67
2022/03/13 00:29:36;;;;;;;57.03;10.30;;;;;;;;;;5058227;28;20261;-67
2022/03/13 00:32:03;;;;;;;85.07;13.47;;;;;;;;;;5037854;28;20904;-67
2022/03/13 00:34:29;;;;;;;76.67;12.33;;;;;;;;;;5035303;28;20221;-67
2022/03/13 00:36:55;;;;;;;66.67;11.13;;;;;;;;;;5050830;28;20260;-67
2022/03/13 00:39:21;;;;;;;92.10;13.93;;;;;;;;;;5055816;28;20206;-66
2022/03/13 00:41:47;;;;;;;114.93;17.40;;;;;;;;;;5051850;28;20573;-67
2022/03/13 00:44:13;;;;;;;63.17;11.37;;;;;;;;;;5060075;28;20297;-67
2022/03/13 00:46:39;;;;;;;102.43;15.53;;;;;;;;;;5052721;28;20738;-67
2022/03/13 00:49:06;;;;;;;92.73;13.87;;;;;;;;;;5048991;28;20790;-67
2022/03/13 00:51:31;;;;;;;78.80;13.63;;;;;;;;;;5055775;28;20198;-66
2022/03/13 00:53:57;;;;;;;85.50;14.63;;;;;;;;;;5053078;28;20206;-67
2022/03/13 00:56:23;;;;;;;107.97;16.23;;;;;;;;;;5051443;28;20214;-67
2022/03/13 00:58:49;;;;;;;91.93;15.07;;;;;;;;;;5037653;28;20195;-67
2022/03/13 01:01:16;;;;;;;101.53;16.33;;;;;;;;;;5053367;28;20304;-67
2022/03/13 01:03:42;;;;;;;88.67;14.67;;;;;;;;;;5054923;28;20183;-66
2022/03/13 01:06:09;;;;;;;100.27;16.40;;;;;;;;;;5050337;28;20214;-66
2022/03/13 01:08:35;;;;;;;148.20;21.40;;;;;;;;;;5053660;28;20200;-67
2022/03/13 01:11:02;;;;;;;136.07;20.33;;;;;;;;;;5054290;28;20251;-67
2022/03/13 01:13:29;;;;;;;97.07;16.03;;;;;;;;;;5052717;28;20183;-66
2022/03/13 01:15:59;;;;;;;82.40;14.00;;;;;;;;;;5053018;28;20232;-67
2022/03/13 01:18:25;;;;;;;57.80;10.47;;;;;;;;;;5051592;28;20229;-67
2022/03/13 01:20:51;;;;;;;100.33;15.37;;;;;;;;;;5051653;28;20548;-67
2022/03/13 01:23:17;;;;;;;105.60;15.87;;;;;;;;;;5055938;28;20294;-67
2022/03/13 01:25:44;;;;;;;126.87;18.53;;;;;;;;;;5059043;28;20692;-67
2022/03/13 01:28:10;;;;;;;99.67;16.13;;;;;;;;;;5044911;28;20234;-67
2022/03/13 01:30:35;;;;;;;117.93;18.37;;;;;;;;;;5035484;28;20229;-67
2022/03/13 01:33:02;;;;;;;106.80;17.30;;;;;;;;;;5052547;28;20290;-66
2022/03/13 01:35:28;;;;;;;107.70;17.07;;;;;;;;;;5052672;28;20218;-67
2022/03/13 01:37:54;;;;;;;117.80;18.17;;;;;;;;;;5052952;28;20733;-67
2022/03/13 01:40:21;;;;;;;83.93;13.77;;;;;;;;;;5052039;28;20259;-66
2022/03/13 01:42:48;;;;;;;118.43;17.40;;;;;;;;;;5047751;28;20194;-67
2022/03/13 01:45:15;;;;;;;100.17;14.97;;;;;;;;;;5029107;28;20184;-67
2022/03/13 01:47:42;;;;;;;123.17;18.90;;;;;;;;;;5047901;28;20302;-67
2022/03/13 01:50:09;;;;;;;102.70;15.67;;;;;;;;;;5053290;28;20187;-67
2022/03/13 01:52:35;;;;;;;74.70;12.50;;;;;;;;;;5050916;28;20509;-67
2022/03/13 01:55:02;;;;;;;68.17;11.83;;;;;;;;;;5036015;28;20214;-66
2022/03/13 01:57:28;;;;;;;96.77;15.53;;;;;;;;;;5051066;28;20236;-67
2022/03/13 01:59:56;;;;;;;77.43;12.13;;;;;;;;;;5049909;28;20271;-67
2022/03/13 02:02:22;;;;;;;72.97;12.43;;;;;;;;;;5034650;28;20816;-66
2022/03/13 02:04:55;;;;;;;98.77;14.87;;;;;;;;;;5049051;28;20873;-66
2022/03/13 02:07:22;;;;;;;86.77;13.23;;;;;;;;;;5049770;28;20648;-66
2022/03/13 02:09:48;;;;;;;97.83;14.83;;;;;;;;;;5050257;28;20230;-66
2022/03/13 02:12:18;;;;;;;51.83;10.17;;;;;;;;;;5052479;28;20183;-66
2022/03/13 02:14:44;;;;;;;113.63;16.77;;;;;;;;;;5055629;28;20198;-66
2022/03/13 02:17:10;;;;;;;85.73;13.27;;;;;;;;;;5046723;28;20541;-66
2022/03/13 02:19:36;;;;;;;85.67;13.80;;;;;;;;;;5033320;28;20207;-66
2022/03/13 02:22:02;;;;;;;95.37;15.03;;;;;;;;;;5050540;28;20179;-67
2022/03/13 02:24:28;;;;;;;118.67;16.80;;;;;;;;;;5049025;28;20206;-67
2022/03/13 02:26:59;;;;;;;129.20;17.77;;;;;;;;;;5046247;28;20297;-67
2022/03/13 02:29:26;;;;;;;93.43;14.33;;;;;;;;;;5034515;28;20592;-67
2022/03/13 02:31:52;;;;;;;118.43;17.43;;;;;;;;;;5052529;28;20592;-66
2022/03/13 02:34:19;;;;;;;99.57;15.13;;;;;;;;;;5050021;28;20226;-67
2022/03/13 02:36:45;;;;;;;116.33;17.50;;;;;;;;;;5047636;28;20981;-67
2022/03/13 02:39:12;;;;;;;88.33;14.10;;;;;;;;;;5051242;28;20241;-66
2022/03/13 02:41:40;;;;;;;115.07;17.13;;;;;;;;;;5050136;28;20274;-67
2022/03/13 02:44:07;;;;;;;125.93;17.93;;;;;;;;;;5033624;28;20441;-67
2022/03/13 02:46:48;;;;;;;76.97;12.07;;;;;;;;;;5051855;28;20198;-66
2022/03/13 02:49:19;;;;;;;90.50;13.83;;;;;;;;;;5038332;28;20210;-67
2022/03/13 02:51:45;;;;;;;90.63;13.80;;;;;;;;;;5056686;28;20193;-66
2022/03/13 02:54:13;;;;;;;55.93;10.07;;;;;;;;;;5052956;28;20207;-67
2022/03/13 02:56:38;;;;;;;91.47;14.83;;;;;;;;;;5049417;28;20690;-67
2022/03/13 02:59:04;;;;;;;120.83;17.80;;;;;;;;;;5052375;28;20206;-66
2022/03/13 03:01:31;;;;;;;100.07;15.30;;;;;;;;;;5051063;28;20185;-67
2022/03/13 03:03:58;;;;;;;101.27;15.73;;;;;;;;;;5048965;28;20249;-66
2022/03/13 03:06:25;;;;;;;75.37;13.03;;;;;;;;;;5034634;28;20779;-66
2022/03/13 03:08:51;;;;;;;144.40;20.27;;;;;;;;;;5046154;28;20218;-66
2022/03/13 03:11:17;;;;;;;93.73;14.50;;;;;;;;;;5051029;28;20302;-66
2022/03/13 03:13:43;;;;;;;107.23;15.87;;;;;;;;;;5046511;28;20229;-66
2022/03/13 03:16:09;;;;;;;99.57;15.10;;;;;;;;;;5050374;28;20301;-66
2022/03/13 03:18:35;;;;;;;73.43;12.40;;;;;;;;;;5050735;28;20625;-67
2022/03/13 03:21:01;;;;;;;80.90;12.83;;;;;;;;;;5049141;28;20640;-67
2022/03/13 03:23:27;;;;;;;85.20;13.70;;;;;;;;;;5033140;28;20727;-66
2022/03/13 03:25:53;;;;;;;98.10;15.57;;;;;;;;;;5051864;28;20310;-66
2022/03/13 03:28:19;;;;;;;51.40;10.27;;;;;;;;;;5055175;28;20210;-67
2022/03/13 03:30:45;;;;;;;79.97;13.20;;;;;;;;;;5060257;28;20198;-67
2022/03/13 03:33:11;;;;;;;96.97;14.77;;;;;;;;;;5041188;28;20209;-67
2022/03/13 03:35:37;;;;;;;84.23;13.67;;;;;;;;;;5033025;28;20206;-67
2022/03/13 03:38:03;;;;;;;110.67;15.90;;;;;;;;;;5057213;28;20207;-67
2022/03/13 03:40:30;;;;;;;98.83;15.03;;;;;;;;;;5055449;28;20186;-67
2022/03/13 03:42:57;;;;;;;72.50;12.47;;;;;;;;;;5050769;28;20194;-66
2022/03/13 03:45:23;;;;;;;79.73;12.63;;;;;;;;;;5053956;28;20323;-66
2022/03/13 03:47:49;;;;;;;86.70;13.47;;;;;;;;;;5052325;28;20256;-66
2022/03/13 03:50:15;;;;;;;135.10;18.63;;;;;;;;;;5053547;28;20262;-66
2022/03/13 03:52:41;;;;;;;133.67;18.70;;;;;;;;;;5056423;28;20758;-67
2022/03/13 03:55:07;;;;;;;68.20;11.80;;;;;;;;;;5037524;28;20677;-66
2022/03/13 03:57:33;;;;;;;79.73;12.63;;;;;;;;;;5056408;28;20683;-66
2022/03/13 03:59:59;;;;;;;74.27;12.10;;;;;;;;;;5055141;28;20183;-66
2022/03/13 04:02:25;;;;;;;95.03;15.00;;;;;;;;;;5051354;28;20266;-67
2022/03/13 04:04:51;;;;;;;101.30;14.70;;;;;;;;;;5054420;28;20182;-66
2022/03/13 04:07:18;;;;;;;76.27;12.00;;;;;;;;;;5035774;28;20191;-67
2022/03/13 04:09:44;;;;;;;104.67;16.00;;;;;;;;;;5052906;28;20195;-66
2022/03/13 04:12:11;;;;;;;91.67;13.73;;;;;;;;;;5047611;28;20274;-67
2022/03/13 04:14:37;;;;;;;120.77;17.63;;;;;;;;;;5052463;28;20727;-67
2022/03/13 04:17:05;;;;;;;74.33;12.10;;;;;;;;;;5058653;28;20214;-66
2022/03/13 04:19:31;;;;;;;82.77;12.87;;;;;;;;;;5049445;28;20928;-66
2022/03/13 04:21:57;;;;;;;80.80;12.97;;;;;;;;;;5058182;28;20264;-66
2022/03/13 04:24:23;;;;;;;67.70;11.30;;;;;;;;;;5055511;28;20305;-67
2022/03/13 04:26:49;;;;;;;84.00;13.43;;;;;;;;;;5051453;28;20195;-67
2022/03/13 04:29:16;;;;;;;32.50;8.00;;;;;;;;;;5060082;28;20281;-66
2022/03/13 04:31:43;;;;;;;139.60;19.43;;;;;;;;;;5052860;28;20270;-66
2022/03/13 04:34:10;;;;;;;110.23;16.63;;;;;;;;;;5047280;28;20289;-66
2022/03/13 04:36:37;;;;;;;65.20;11.83;;;;;;;;;;5056264;28;20190;-66
2022/03/13 04:39:04;;;;;;;93.03;14.30;;;;;;;;;;5053846;28;20202;-66
2022/03/13 04:41:30;;;;;;;98.33;14.93;;;;;;;;;;5050516;28;20183;-67
2022/03/13 04:43:56;;;;;;;64.00;11.13;;;;;;;;;;5055470;28;20179;-67
2022/03/13 04:46:22;;;;;;;91.33;14.17;;;;;;;;;;5054590;28;20275;-66
2022/03/13 04:48:48;;;;;;;87.33;13.67;;;;;;;;;;5048081;28;20607;-66
2022/03/13 04:51:14;;;;;;;91.63;14.13;;;;;;;;;;5052803;28;20266;-66
2022/03/13 04:53:40;;;;;;;107.13;16.40;;;;;;;;;;5047166;28;20669;-67
2022/03/13 04:56:07;;;;;;;100.73;15.10;;;;;;;;;;5050708;28;20285;-66
2022/03/13 04:58:33;;;;;;;136.70;19.63;;;;;;;;;;5051199;28;20255;-67
2022/03/13 05:00:59;;;;;;;105.63;16.07;;;;;;;;;;5048831;28;20179;-67
2022/03/13 05:03:26;;;;;;;103.60;15.77;;;;;;;;;;5052337;28;20213;-66
2022/03/13 05:05:53;;;;;;;100.80;15.03;;;;;;;;;;5056474;28;20207;-66
2022/03/13 05:08:19;;;;;;;56.77;10.43;;;;;;;;;;5051459;28;21693;-66
2022/03/13 05:10:46;;;;;;;85.93;13.13;;;;;;;;;;5056902;28;20213;-67
2022/03/13 05:13:14;;;;;;;98.27;14.60;;;;;;;;;;5049902;28;20210;-67
2022/03/13 05:15:40;;;;;;;76.10;12.63;;;;;;;;;;5037729;28;20207;-66
2022/03/13 05:18:07;;;;;;;79.07;13.30;;;;;;;;;;5057721;28;20255;-66
2022/03/13 05:20:34;;;;;;;104.43;15.50;;;;;;;;;;5039015;28;20190;-66
2022/03/13 05:23:00;;;;;;;85.60;13.33;;;;;;;;;;5051884;28;20672;-67
2022/03/13 05:25:30;;;;;;;70.00;11.57;;;;;;;;;;5055708;28;20233;-67
2022/03/13 05:27:56;;;;;;;78.37;12.40;;;;;;;;;;5048485;28;20276;-66
2022/03/13 05:30:22;;;;;;;75.63;12.13;;;;;;;;;;5052722;28;20191;-66
2022/03/13 05:32:48;;;;;;;96.60;14.13;;;;;;;;;;5056039;28;20221;-66
2022/03/13 05:35:15;;;;;;;56.07;9.87;;;;;;;;;;5036750;28;20221;-67
2022/03/13 05:37:41;;;;;;;138.70;19.33;;;;;;;;;;5050542;28;20737;-67
2022/03/13 05:40:07;;;;;;;91.43;14.20;;;;;;;;;;5051350;28;20183;-66
2022/03/13 05:42:33;;;;;;;52.03;9.87;;;;;;;;;;5047246;28;20274;-66
2022/03/13 05:45:00;;;;;;;36.33;8.10;;;;;;;;;;5052698;28;20229;-67
2022/03/13 05:47:26;;;;;;;87.63;13.97;;;;;;;;;;5055583;28;20207;-67
2022/03/13 05:49:52;;;;;;;76.77;12.63;;;;;;;;;;5054027;28;20190;-66
2022/03/13 05:52:18;;;;;;;41.53;7.93;;;;;;;;;;5050101;28;20214;-66
2022/03/13 05:54:45;;;;;;;80.27;12.03;;;;;;;;;;5054634;28;20536;-67
2022/03/13 05:57:12;;;;;;;74.03;12.40;;;;;;;;;;5049813;28;20210;-66
2022/03/13 05:59:39;;;;;;;74.40;12.37;;;;;;;;;;5049851;28;20202;-66
2022/03/13 06:02:05;;;;;;;89.27;14.00;;;;;;;;;;5054084;28;20261;-67
2022/03/13 06:04:36;;;;;;;72.53;12.10;;;;;;;;;;5050341;28;20829;-67
2022/03/13 06:07:03;;;;;;;115.27;17.00;;;;;;;;;;5052005;28;20614;-67
2022/03/13 06:09:28;;;;;;;77.83;13.23;;;;;;;;;;5050620;28;20283;-67
2022/03/13 06:11:54;;;;;;;56.50;10.67;;;;;;;;;;5047257;28;20910;-67
2022/03/13 06:14:21;;;;;;;69.17;11.43;;;;;;;;;;5052659;28;20637;-67
2022/03/13 06:16:47;;;;;;;70.47;12.23;;;;;;;;;;5051765;28;20194;-66
2022/03/13 06:19:13;;;;;;;76.60;13.00;;;;;;;;;;5046902;28;20199;-66
2022/03/13 06:21:42;;;;;;;82.10;13.67;;;;;;;;;;5051137;28;20308;-66
2022/03/13 06:24:08;;;;;;;36.43;8.70;;;;;;;;;;5052217;28;20182;-66
2022/03/13 06:26:34;;;;;;;90.80;14.50;;;;;;;;;;5050089;28;20214;-66
2022/03/13 06:29:00;;;;;;;57.23;10.77;;;;;;;;;;5035716;28;21455;-66
2022/03/13 06:31:26;;;;;;;48.13;9.50;;;;;;;;;;5055216;28;20198;-67
2022/03/13 06:33:52;;;;;;;77.60;13.10;;;;;;;;;;5050906;28;20194;-66
2022/03/13 06:36:18;;;;;;;51.50;9.83;;;;;;;;;;5048956;28;20183;-66
2022/03/13 06:38:44;;;;;;;68.93;11.50;;;;;;;;;;5046425;28;20678;-66
2022/03/13 06:41:10;;;;;;;68.73;11.33;;;;;;;;;;5053860;28;20289;-67
2022/03/13 06:43:36;;;;;;;57.20;9.17;;;;;;;;;;5053935;28;20333;-67
2022/03/13 06:46:03;;;;;;;67.07;11.03;;;;;;;;;;5057411;28;20312;-67
2022/03/13 06:48:31;;;;;;;57.90;10.03;;;;;;;;;;5054515;28;20202;-68
2022/03/13 06:50:57;;;;;;;33.33;7.17;;;;;;;;;;5055041;28;20190;-67
2022/03/13 06:53:23;;;;;;;70.03;10.53;;;;;;;;;;5055857;28;20199;-68
2022/03/13 06:55:52;;;;;;;117.10;16.00;;;;;;;;;;5035315;28;20206;-69
2022/03/13 06:58:18;;;;;;;24.90;6.03;;;;;;;;;;5048611;28;20211;-70
2022/03/13 07:00:45;;;;;;;79.67;12.53;;;;;;;;;;5046517;28;20207;-71
2022/03/13 07:03:12;;;;;;;263.90;33.73;;;;;;;;;;5044827;28;20187;-71
2022/03/13 07:05:38;;;;;;;70.97;11.73;;;;;;;;;;5032119;28;20187;-71
2022/03/13 07:08:04;;;;;;;58.93;10.37;;;;;;;;;;5053003;28;20203;-70
2022/03/13 07:10:30;;;;;;;60.17;10.60;;;;;;;;;;5052504;28;20188;-71
2022/03/13 07:12:57;;;;;;;94.60;14.40;;;;;;;;;;5046732;28;20193;-71
2022/03/13 07:15:24;;;;;;;85.80;13.00;;;;;;;;;;5048157;28;21137;-70
2022/03/13 07:17:50;;;;;;;87.17;13.03;;;;;;;;;;5050448;28;20808;-71
2022/03/13 07:20:16;;;;;;;59.47;9.97;;;;;;;;;;5052853;28;20623;-71
2022/03/13 07:22:43;;;;;;;92.63;14.47;;;;;;;;;;5045714;28;20906;-71
2022/03/13 07:25:09;;;;;;;96.33;13.83;;;;;;;;;;5057842;28;20234;-70
2022/03/13 07:27:36;;;;;;;94.63;13.27;;;;;;;;;;5048001;28;20261;-71
2022/03/13 07:30:02;;;;;;;91.37;14.00;;;;;;;;;;5048581;28;22367;-71
2022/03/13 07:32:28;;;;;;;80.37;12.87;;;;;;;;;;5052097;28;20372;-70
2022/03/13 07:34:54;;;;;;;86.23;13.37;;;;;;;;;;5045747;28;20344;-71
2022/03/13 07:37:20;;;;;;;102.27;15.70;;;;;;;;;;5045262;28;20183;-71
2022/03/13 07:39:47;;;;;;;106.30;15.83;;;;;;;;;;5043958;28;20179;-70
2022/03/13 07:42:23;;;;;;;61.50;11.13;;;;;;;;;;5044413;28;20176;-69
2022/03/13 07:44:49;;;;;;;86.77;14.43;;;;;;;;;;5047220;28;20179;-67
2022/03/13 07:47:15;;;;;;;71.30;12.87;;;;;;;;;;5046887;28;20186;-76
2022/03/13 07:49:41;;;;;;;113.73;17.67;;;;;;;;;;5046391;28;20183;-68
2022/03/13 07:52:07;;;;;;;50.10;10.97;;;;;;;;;;5037311;28;20288;-69
2022/03/13 07:54:34;;;;;;;73.03;13.60;;;;;;;;;;5037431;28;20325;-70
2022/03/13 07:57:00;;;;;;;72.80;13.83;;;;;;;;;;5038515;28;20204;-70
2022/03/13 07:59:26;;;;;;;76.53;13.73;;;;;;;;;;5046844;28;20397;-71
2022/03/13 08:01:52;;;;;;;86.03;15.23;;;;;;;;;;5047690;28;20183;-72
2022/03/13 08:04:18;;;;;;;132.43;19.30;;;;;;;;;;5045413;28;20231;-72
2022/03/13 08:06:44;;;;;;;70.80;13.70;;;;;;;;;;5043062;28;20294;-71
2022/03/13 08:09:11;;;;;;;89.53;15.70;;;;;;;;;;5043504;28;20309;-71
2022/03/13 08:11:38;;;;;;;84.93;14.33;;;;;;;;;;5032726;28;20222;-71
2022/03/13 08:14:04;;;;;;;85.03;15.20;;;;;;;;;;5035940;28;20786;-73
2022/03/13 08:16:30;;;;;;;95.27;16.07;;;;;;;;;;5048732;28;20243;-69
2022/03/13 08:18:56;;;;;;;96.70;15.33;;;;;;;;;;5045184;28;20233;-70
2022/03/13 08:21:22;;;;;;;60.33;12.23;;;;;;;;;;5056687;28;20244;-70
2022/03/13 08:23:48;;;;;;;67.53;13.27;;;;;;;;;;5054853;28;20175;-69
2022/03/13 08:26:14;;;;;;;75.73;14.27;;;;;;;;;;5039120;28;20271;-69
2022/03/13 08:28:44;;;;;;;99.37;16.27;;;;;;;;;;5056081;28;20281;-69
2022/03/13 08:31:10;;;;;;;55.60;11.43;;;;;;;;;;5056189;28;20269;-68
2022/03/13 08:33:36;;;;;;;69.03;13.30;;;;;;;;;;5057015;28;20659;-69
2022/03/13 08:36:02;;;;;;;58.70;12.07;;;;;;;;;;5052175;28;20276;-72
2022/03/13 08:38:29;;;;;;;35.63;9.03;;;;;;;;;;5059379;28;20230;-67
2022/03/13 08:40:55;;;;;;;101.30;16.90;;;;;;;;;;5057858;28;20565;-71
2022/03/13 08:43:21;;;;;;;89.07;14.13;;;;;;;;;;5042789;28;20186;-70
2022/03/13 08:45:47;;;;;;;101.83;17.23;;;;;;;;;;5053608;28;20182;-69
2022/03/13 08:48:13;;;;;;;24.17;8.17;;;;;;;;;;5059689;28;20274;-69
2022/03/13 08:50:39;;;;;;;85.00;15.67;;;;;;;;;;5039250;28;20640;-69
2022/03/13 08:53:05;;;;;;;97.30;15.77;;;;;;;;;;5058267;28;20289;-69
2022/03/13 08:55:31;;;;;;;54.70;10.10;;;;;;;;;;5053358;28;20783;-69
2022/03/13 08:57:57;;;;;;;83.00;13.40;;;;;;;;;;5030682;28;20324;-69
2022/03/13 09:00:24;;;;;;;64.10;11.00;;;;;;;;;;5047517;28;20345;-68
2022/03/13 09:02:50;;;;;;;67.60;12.83;;;;;;;;;;5055818;28;20179;-68
2022/03/13 09:05:17;;;;;;;92.73;16.23;;;;;;;;;;5055821;28;20218;-69
2022/03/13 09:07:43;;;;;;;57.57;11.70;;;;;;;;;;5049220;28;20211;-69
2022/03/13 09:10:11;;;;;;;80.77;14.03;;;;;;;;;;5052089;28;20194;-69
2022/03/13 09:12:38;;;;;;;85.80;15.30;;;;;;;;;;5041021;28;20186;-70
2022/03/13 09:15:04;;;;;;;50.70;10.80;;;;;;;;;;5055306;28;20256;-71
2022/03/13 09:17:30;;;;;;;86.07;15.30;;;;;;;;;;5059514;28;20718;-70
2022/03/13 09:19:56;;;;;;;73.63;13.83;;;;;;;;;;5040511;28;20382;-70
2022/03/13 09:22:30;;;;;;;38.60;9.57;;;;;;;;;;5034376;28;20913;-69
2022/03/13 09:24:57;;;;;;;67.00;13.43;;;;;;;;;;5051043;28;20183;-69
2022/03/13 09:27:23;;;;;;;67.50;13.23;;;;;;;;;;5051183;28;20248;-70
2022/03/13 09:29:49;;;;;;;79.33;14.10;;;;;;;;;;5054004;28;20196;-69
2022/03/13 09:32:15;;;;;;;77.33;13.53;;;;;;;;;;5034921;28;21829;-69
2022/03/13 09:34:41;;;;;;;108.40;18.37;;;;;;;;;;5044906;28;20234;-70
2022/03/13 09:37:07;;;;;;;43.57;10.20;;;;;;;;;;5061300;28;20225;-70
2022/03/13 09:39:34;;;;;;;85.97;15.43;;;;;;;;;;5053227;28;20593;-70
2022/03/13 09:42:00;;;;;;;82.73;15.40;;;;;;;;;;5027742;28;20187;-68
2022/03/13 09:44:26;;;;;;;99.37;17.47;;;;;;;;;;5031537;28;20195;-69
2022/03/13 09:46:52;;;;;;;76.70;14.83;;;;;;;;;;5049044;28;20275;-69
2022/03/13 09:49:20;;;;;;;79.03;14.77;;;;;;;;;;5048810;28;20298;-69
2022/03/13 09:51:46;;;;;;;78.13;14.37;;;;;;;;;;5042943;28;20641;-69
2022/03/13 09:54:13;;;;;;;72.10;13.60;;;;;;;;;;5048859;28;20210;-69
2022/03/13 09:56:39;;;;;;;129.43;20.87;;;;;;;;;;5043105;28;20180;-69
2022/03/13 09:59:05;;;;;;;199.93;28.93;;;;;;;;;;5047436;28;20210;-70
2022/03/13 10:01:31;;;;;;;71.27;13.60;;;;;;;;;;5037497;28;20210;-70
2022/03/13 10:03:57;;;;;;;72.20;13.03;;;;;;;;;;5023205;28;20183;-69
2022/03/13 10:06:25;;;;;;;30.33;7.47;;;;;;;;;;5052200;28;20238;-69
2022/03/13 10:08:50;;;;;;;90.43;15.20;;;;;;;;;;5047857;28;20296;-69
2022/03/13 10:11:20;;;;;;;80.57;13.70;;;;;;;;;;5046291;28;20262;-69
2022/03/13 10:13:46;;;;;;;94.97;16.10;;;;;;;;;;5049418;28;20648;-69
2022/03/13 10:16:19;;;;;;;86.60;15.10;;;;;;;;;;5030731;28;20687;-69
2022/03/13 10:18:45;;;;;;;96.60;16.10;;;;;;;;;;5027207;28;20203;-69
2022/03/13 10:21:13;;;;;;;69.80;12.73;;;;;;;;;;5052376;28;20186;-69
2022/03/13 10:23:42;;;;;;;93.57;16.13;;;;;;;;;;5052155;28;20179;-70
2022/03/13 10:26:08;;;;;;;45.03;8.80;;;;;;;;;;5049726;28;20230;-70
2022/03/13 10:28:35;;;;;;;51.93;10.80;;;;;;;;;;5049954;28;20282;-70
2022/03/13 10:31:01;;;;;;;65.30;12.20;;;;;;;;;;5056230;28;20210;-70
2022/03/13 10:33:29;;;;;;;113.17;17.80;;;;;;;;;;5050532;28;20203;-69
2022/03/13 10:36:07;;;;;;;74.53;13.03;;;;;;;;;;5050405;28;20768;-70
2022/03/13 10:38:37;;;;;;;66.77;12.53;;;;;;;;;;5028845;28;20310;-69
2022/03/13 10:41:08;;;;;;;84.00;15.10;;;;;;;;;;5049731;28;20183;-69
2022/03/13 10:43:35;;;;;;;77.50;14.73;;;;;;;;;;5049726;28;20530;-69
2022/03/13 10:46:01;;;;;;;83.13;14.93;;;;;;;;;;5037282;28;20190;-62
2022/03/13 10:48:28;;;;;;;150.30;24.03;;;;;;;;;;5043360;28;20369;-64
2022/03/13 10:50:59;;;;;;;62.47;13.50;;;;;;;;;;5056554;28;20620;-63
2022/03/13 10:53:26;;;;;;;135.60;21.80;;;;;;;;;;5047769;28;23023;-69
2022/03/13 10:56:14;;;;;;;175.27;27.83;;;;;;;;;;5039080;28;20364;-70
2022/03/13 10:58:48;;;;;;;99.97;18.17;;;;;;;;;;5046561;28;20278;-70
2022/03/13 11:01:16;;;;;;;96.20;17.27;;;;;;;;;;5033848;28;20190;-68
2022/03/13 11:03:48;;;;;;;153.23;25.33;;;;;;;;;;5046232;28;20217;-70
2022/03/13 11:06:14;;;;;;;126.07;21.10;;;;;;;;;;5046466;28;20198;-70
2022/03/13 11:08:41;;;;;;;84.70;16.47;;;;;;;;;;5033909;28;20207;-69
2022/03/13 11:11:08;;;;;;;153.67;24.63;;;;;;;;;;5051173;28;20288;-70
2022/03/13 11:13:37;;;;;;;75.53;14.63;;;;;;;;;;5049323;28;20194;-71
2022/03/13 11:16:04;;;;;;;74.90;14.60;;;;;;;;;;5051738;28;20241;-71
2022/03/13 11:18:32;;;;;;;68.33;13.47;;;;;;;;;;5049230;28;20207;-68
2022/03/13 11:20:59;;;;;;;84.60;16.53;;;;;;;;;;5050586;28;20861;-69
2022/03/13 11:23:33;;;;;;;97.27;18.77;;;;;;;;;;5052497;28;20266;-70
2022/03/13 11:26:00;;;;;;;178.67;31.30;;;;;;;;;;5029102;28;20541;-70
2022/03/13 11:28:29;;;;;;;109.67;22.60;;;;;;;;;;5047972;28;20283;-71
2022/03/13 11:30:56;;;;;;;92.97;21.30;;;;;;;;;;5034773;28;20336;-72
2022/03/13 11:33:39;;;;;;;160.07;38.60;;;;;;;;;;5035839;28;20195;-68
2022/03/13 11:36:23;;;;;;;238.07;40.90;;;;;;;;;;5042711;28;20242;-69
2022/03/13 11:38:57;;;;;;;154.77;30.73;;;;;;;;;;5041608;28;20611;-67
2022/03/13 11:41:34;;;;;;;110.30;23.43;;;;;;;;;;5028209;28;20237;-68
2022/03/13 11:44:20;;;;;;;115.17;27.57;;;;;;;;;;5047552;28;20170;-68
2022/03/13 11:46:48;;;;;;;207.43;40.53;;;;;;;;;;5029861;28;20643;-68
2022/03/13 11:49:37;;;;;;;97.50;29.07;;;;;;;;;;5051264;28;20202;-68
2022/03/13 11:52:12;;;;;;;142.70;33.27;;;;;;;;;;5040135;28;20209;-68
2022/03/13 11:54:47;;;;;;;144.97;41.83;;;;;;;;;;5049342;28;20685;-68
2022/03/13 11:57:14;;;;;;;105.90;21.37;;;;;;;;;;5043334;28;20189;-68
2022/03/13 11:59:40;;;;;;;174.00;30.33;;;;;;;;;;5058823;28;20187;-70
2022/03/13 12:02:10;;;;;;;86.90;17.23;;;;;;;;;;5031952;28;20187;-68
2022/03/13 12:04:36;;;;;;;100.10;21.33;;;;;;;;;;5046353;28;20209;-68
2022/03/13 12:07:06;;;;;;;157.33;30.50;;;;;;;;;;5049560;28;20458;-68
2022/03/13 12:09:42;;;;;;;125.20;23.70;;;;;;;;;;5031018;28;20379;-69
2022/03/13 12:12:09;;;;;;;190.70;39.00;;;;;;;;;;5020287;28;20194;-68
2022/03/13 12:14:54;;;;;;;118.17;29.13;;;;;;;;;;5045438;28;20207;-69
2022/03/13 12:17:22;;;;;;;102.78;25.23;;;;;;;;;;5045005;28;20933;-69
2022/03/13 12:19:48;;;;;;;171.90;33.38;;;;;;;;;;5029717;28;20179;-68
2022/03/13 12:22:15;;;;;;;73.15;15.70;;;;;;;;;;5045505;28;20194;-69
2022/03/13 12:24:48;;;;;;;118.97;22.90;;;;;;;;;;5044375;28;20202;-69
2022/03/13 12:27:14;;;;;;;100.68;18.35;;;;;;;;;;5043713;28;20203;-69
2022/03/13 12:29:40;;;;;;;115.20;19.88;;;;;;;;;;5045707;28;20179;-70
2022/03/13 12:32:13;;;;;;;105.75;17.98;;;;;;;;;;5040515;28;20213;-69
2022/03/13 12:34:44;;;;;;;120.15;20.05;;;;;;;;;;5042540;28;20245;-69
2022/03/13 12:37:10;;;;;;;110.87;18.53;;;;;;;;;;5038626;28;23527;-69
2022/03/13 12:39:48;;;;;;;38.42;9.50;;;;;;;;;;5051816;28;20215;-69
2022/03/13 12:42:20;;;;;;;31.75;9.10;;;;;;;;;;5053469;28;20190;-69
2022/03/13 12:44:57;;;;;;;70.97;14.05;;;;;;;;;;5061519;28;20185;-69
2022/03/13 12:47:27;;;;;;;41.38;10.18;;;;;;;;;;5061753;28;20214;-69
2022/03/13 12:49:57;;;;;;;59.25;12.77;;;;;;;;;;5054022;28;20202;-69
2022/03/13 12:52:23;;;;;;;79.45;14.68;;;;;;;;;;5061518;28;20586;-69
2022/03/13 12:54:52;;;;;;;69.40;13.45;;;;;;;;;;5063081;28;20811;-69
2022/03/13 12:57:19;;;;;;;85.95;16.33;;;;;;;;;;5036609;28;20668;-68
2022/03/13 12:59:48;;;;;;;167.43;25.83;;;;;;;;;;5027107;28;20195;-69
2022/03/13 13:02:16;;;;;;;140.90;23.80;;;;;;;;;;5030677;28;20175;-68
2022/03/13 13:04:55;;;;;;;87.35;18.05;;;;;;;;;;5045876;28;20205;-68
2022/03/13 13:07:25;;;;;;;148.13;24.38;;;;;;;;;;5041590;28;20191;-69
2022/03/13 13:09:51;;;;;;;127.78;22.33;;;;;;;;;;5052605;28;20191;-69
2022/03/13 13:12:23;;;;;;;64.55;12.48;;;;;;;;;;5044171;28;20187;-69
2022/03/13 13:14:49;;;;;;;77.50;14.68;;;;;;;;;;5033952;28;20708;-69
2022/03/13 13:17:17;;;;;;;105.53;18.10;;;;;;;;;;5028609;28;20632;-69
2022/03/13 13:19:45;;;;;;;149.30;26.48;;;;;;;;;;5040306;28;20273;-69
2022/03/13 13:22:11;;;;;;;102.85;21.92;;;;;;;;;;5038133;28;20233;-69
2022/03/13 13:24:48;;;;;;;113.35;23.98;;;;;;;;;;5041351;28;20187;-69
2022/03/13 13:27:27;;;;;;;80.70;20.70;;;;;;;;;;5050608;28;20202;-69
2022/03/13 13:29:53;;;;;;;102.88;22.45;;;;;;;;;;5048861;28;20182;-69
2022/03/13 13:32:22;;;;;;;96.72;18.50;;;;;;;;;;5029001;28;20199;-72
2022/03/13 13:35:04;;;;;;;67.70;13.77;;;;;;;;;;5054238;28;20203;-71
2022/03/13 13:37:30;;;;;;;79.18;14.57;;;;;;;;;;5032601;28;20204;-73
2022/03/13 13:40:09;;;;;;;120.53;20.10;;;;;;;;;;5041753;28;20283;-77
2022/03/13 13:42:36;;;;;;;32.13;7.25;;;;;;;;;;5047309;28;20205;-72
2022/03/13 13:45:21;;;;;;;88.90;14.77;;;;;;;;;;5027769;28;20285;-61
2022/03/13 13:47:48;;;;;;;67.75;12.75;;;;;;;;;;5050106;28;20226;-61
2022/03/13 13:50:18;;;;;;;30.85;7.47;;;;;;;;;;5058307;28;20186;-61
2022/03/13 13:52:44;;;;;;;57.75;10.65;;;;;;;;;;5038688;28;20242;-61
2022/03/13 13:55:20;;;;;;;60.83;12.05;;;;;;;;;;5046104;28;20834;-61
2022/03/13 13:57:46;;;;;;;89.53;16.25;;;;;;;;;;5047124;28;20935;-61
2022/03/13 14:00:27;;;;;;;77.22;13.63;;;;;;;;;;5048397;28;21965;-63
2022/03/13 14:02:53;;;;;;;53.10;11.10;;;;;;;;;;5050458;28;20544;-61
2022/03/13 14:05:19;;;;;;;49.10;10.70;;;;;;;;;;5048624;28;20194;-61
2022/03/13 14:07:45;;;;;;;56.00;11.07;;;;;;;;;;5049506;28;20207;-61
2022/03/13 14:10:14;;;;;;;33.53;7.90;;;;;;;;;;5055892;28;20283;-61
2022/03/13 14:12:41;;;;;;;87.85;16.98;;;;;;;;;;5049037;28;20175;-61
2022/03/13 14:15:07;;;;;;;63.67;13.20;;;;;;;;;;5029894;28;21261;-62